• Join FlightAware (Why Join?)
  • Login
  • US Flag 
04:23AM EDT


 

Airport Tracker/Info


-or-


 

Live Flight TrackerFlight Track Log ✈ BBA13 ✈ 07-Aug-2013 ✈ CYZD - CYZD

Flight Track Log - Related Links

Times and Time Zones

All times are in EDT time to prevent confusion due to time zone crossing. See the BBA13 flight status page for this flight to view local times or setup timezone preferences in your user account.

Time Position Orientation Groundspeed Altitude Reporting Facility
EDT Latitude Longitude Course Direction KTS MPH feet Rate Location/Type
09:34AM 43.7390 -79.4620 140° Southeast 142 163 900  Level FlightAware
09:34AM 43.7300 -79.4500 136° Southeast 174 200 1,300 1,260 Climbing FlightAware
09:35AM 43.7260 -79.4320 107° East 211 243 1,600 720 Climbing FlightAware
09:35AM 43.7310 -79.4170 65° Northeast 217 250 1,600 -420 Level FlightAware
09:35AM 43.7370 -79.4100 40° Northeast 228 262 1,500 -300 Descending FlightAware
09:35AM 43.7420 -79.4070 23° Northeast 229 264 1,500  Level FlightAware
09:35AM 43.7530 -79.4060 North 226 260 1,500  Level FlightAware
09:35AM 43.7580 -79.4090 337° Northwest 223 257 1,500  Level FlightAware
09:35AM 43.7620 -79.4110 340° North 220 253 1,500  Level FlightAware
09:36AM 43.7810 -79.4280 327° Northwest 220 253 1,500  Level FlightAware
09:36AM 43.7930 -79.4430 318° Northwest 220 253 1,500  Level FlightAware
09:37AM 43.8120 -79.4620 324° Northwest 220 253 1,500 1,200 Level FlightAware
09:37AM 43.8610 -79.5140 323° Northwest 271 312 2,900 1,200 Climbing FlightAware
09:38AM 43.8820 -79.5360 323° Northwest 271 312 2,900 3,780 Level FlightAware
09:38AM 43.8920 -79.5420 337° Northwest 286 329 4,800 9,720 Climbing FlightAware
09:38AM 43.9330 -79.5570 345° North 297 342 6,800 5,400 Climbing FlightAware
09:38AM 43.9520 -79.5640 345° North 297 342 7,800 3,840 Climbing FlightAware
09:39AM 43.9790 -79.5730 347° North 298 343 9,000 3,120 Climbing FlightAware
09:39AM 44.0310 -79.5770 357° North 312 359 10,900 1,260 Climbing FlightAware
09:41AM 44.1360 -79.5330 17° North 325 374 11,400 1,140 Climbing FlightAware
09:41AM 44.1990 -79.5060 17° North 326 375 13,200 2,520 Climbing FlightAware
09:42AM 44.2240 -79.4950 18° North 332 382 14,100 1,080 Climbing FlightAware
09:43AM 44.3270 -79.4410 21° North 291 335 15,000 420 Climbing FlightAware
09:44AM 44.3630 -79.4180 25° Northeast 275 316 15,000  Level FlightAware
09:44AM 44.4160 -79.3850 24° Northeast 275 316 15,000  Level FlightAware
09:45AM 44.4750 -79.3480 24° Northeast 274 315 15,000  Level FlightAware
09:46AM 44.5110 -79.3260 24° Northeast 274 315 15,000  Level FlightAware
09:46AM 44.5660 -79.2930 23° Northeast 276 318 15,000  Level FlightAware
09:47AM 44.5820 -79.2830 24° Northeast 275 316 15,000  Level FlightAware
09:48AM 44.6710 -79.2280 24° Northeast 265 305 15,000  Level FlightAware
09:48AM 44.7060 -79.2060 24° Northeast 267 307 15,000  Level FlightAware
09:49AM 44.7240 -79.1930 27° Northeast 268 308 15,000  Level FlightAware
09:49AM 44.7470 -79.1700 35° Northeast 268 308 15,000  Level FlightAware
09:50AM 44.7680 -79.1280 55° Northeast 269 310 15,000  Level FlightAware
09:50AM 44.8010 -79.0580 56° Northeast 274 315 15,000  Level FlightAware
09:51AM 44.8250 -79.0070 56° Northeast 278 320 15,000  Level FlightAware
09:51AM 44.8470 -78.9610 56° Northeast 280 322 15,000  Level FlightAware
09:52AM 44.8720 -78.9040 58° Northeast 240 276 15,000  Level FlightAware
09:53AM 44.8860 -78.8720 58° Northeast 231 266 15,000  Level FlightAware
09:53AM 44.9110 -78.8200 56° Northeast 231 266 15,000  Level FlightAware
09:54AM 44.9330 -78.7710 58° Northeast 231 266 15,000  Level FlightAware
09:56AM 44.9850 -78.8950 301° West 174 200 15,000  Level FlightAware
09:56AM 44.9950 -78.9280 293° West 161 185 15,000  Level FlightAware
09:57AM 45.0050 -78.9600 294° West 137 158 15,000  Level FlightAware
09:57AM 45.0160 -78.9940 295° West 164 189 15,000  Level FlightAware
09:58AM 45.0280 -79.0330 294° West 210 242 15,000  Level FlightAware
09:58AM 45.0330 -79.0500 293° West 212 244 15,000  Level FlightAware
09:59AM 45.0530 -79.1180 293° West 229 264 15,000  Level FlightAware
10:00AM 45.0720 -79.1840 292° West 268 308 15,000 60 Level FlightAware
10:00AM 45.0770 -79.2110 285° West 266 306 15,100  Climbing FlightAware
10:00AM 45.0660 -79.2510 249° West 292 336 15,000 -240 Descending FlightAware
10:00AM 45.0580 -79.2600 218° Southwest 309 356 15,000  Level FlightAware
10:01AM 45.0470 -79.2670 204° Southwest 329 379 15,000  Level FlightAware
10:01AM 45.0300 -79.2710 189° South 356 410 15,000  Level FlightAware
10:01AM 44.9640 -79.2480 166° South 419 482 15,000 60 Level FlightAware
10:02AM 44.9160 -79.2280 164° South 430 495 15,100 60 Climbing FlightAware
10:03AM 44.8430 -79.1900 160° South 373 429 15,100 -120 Level FlightAware
10:03AM 44.8310 -79.1620 121° Southeast 401 461 15,000  Descending FlightAware
10:03AM 44.8550 -79.0720 69° East 410 472 15,100 60 Climbing FlightAware
10:04AM 44.8780 -79.0170 59° Northeast 411 473 15,100 -120 Level FlightAware
10:05AM 44.9220 -78.9100 60° Northeast 412 474 15,000 -120 Descending FlightAware
10:05AM 44.9550 -78.8320 59° Northeast 410 472 15,000  Level FlightAware
10:06AM 44.9900 -78.7590 56° Northeast 328 377 15,000  Level FlightAware
10:06AM 45.0240 -78.7000 51° Northeast 317 365 15,000  Level FlightAware
10:07AM 45.0440 -78.6870 25° Northeast 308 354 15,000  Level FlightAware
10:07AM 45.0490 -78.6860 North 303 349 15,000  Level FlightAware
10:07AM 45.0900 -78.7160 333° Northwest 277 319 15,000  Level FlightAware
10:08AM 45.0930 -78.7320 285° West 270 311 15,000  Level FlightAware
10:08AM 45.0990 -78.7910 278° West 269 310 15,000  Level FlightAware
10:09AM 45.1030 -78.8510 275° West 273 314 15,000  Level FlightAware
10:09AM 45.1080 -78.9170 276° West 258 297 15,000  Level FlightAware
10:10AM 45.1140 -78.9750 278° West 229 264 15,000 180 Level FlightAware
10:10AM 45.1100 -79.0070 260° West 224 258 15,200 480 Climbing FlightAware
10:11AM 45.0880 -79.0370 224° Southwest 234 269 15,500 240 Climbing FlightAware
10:12AM 45.0490 -79.0940 226° Southwest 221 254 15,500  Level FlightAware
10:12AM 45.0260 -79.1260 225° Southwest 188 216 15,500 -420 Level FlightAware
10:13AM 44.9990 -79.1640 225° Southwest 172 198 15,000 -660 Descending FlightAware
10:14AM 44.9770 -79.1950 225° Southwest 168 193 14,500 360 Descending FlightAware
10:14AM 44.9560 -79.2270 227° Southwest 193 222 15,500 900 Climbing FlightAware
10:15AM 44.9390 -79.2520 226° Southwest 199 229 15,400 60 Descending FlightAware
10:15AM 44.9180 -79.2800 223° Southwest 160 184 15,600 -300 Climbing FlightAware
10:16AM 44.9020 -79.3030 226° Southwest 147 169 15,100 -480 Descending FlightAware
10:16AM 44.8870 -79.3220 222° Southwest 106 122 15,100 -1,140 Level FlightAware
10:17AM 44.8700 -79.3450 224° Southwest 217 250 13,900 -1,680 Descending FlightAware
10:17AM 44.8610 -79.3490 197° South 224 258 14,000 1,200 Climbing FlightAware
10:17AM 44.8380 -79.3330 154° Southeast 224 258 14,600 1,620 Climbing FlightAware
10:18AM 44.8320 -79.3130 113° Southeast 230 265 15,100 1,320 Climbing FlightAware
10:18AM 44.8390 -79.2770 75° East 222 255 15,500 180 Climbing FlightAware
10:19AM 44.8490 -79.2400 69° East 200 230 15,300 -480 Descending FlightAware
10:19AM 44.8620 -79.1980 66° East 178 205 15,000 -1,200 Descending FlightAware
10:20AM 44.8740 -79.1580 67° East 253 291 13,900 480 Descending FlightAware
10:20AM 44.8880 -79.1120 67° East 217 250 15,600 1,320 Climbing FlightAware
10:21AM 44.9010 -79.0670 68° East 209 241 15,500 -360 Descending FlightAware
10:22AM 44.9130 -79.0250 68° East 196 226 15,200 -480 Descending FlightAware
10:22AM 44.9230 -78.9860 70° East 154 177 15,000 -300 Descending FlightAware
10:23AM 44.9360 -78.9460 65° Northeast 225 259 14,900 360 Descending FlightAware
10:23AM 44.9580 -78.8820 64° Northeast 212 244 15,500 180 Climbing FlightAware
10:24AM 44.9720 -78.8420 64° Northeast 188 216 15,200 -540 Descending FlightAware
10:25AM 44.9840 -78.8050 65° Northeast 157 181 14,900 -720 Descending FlightAware
10:25AM 44.9990 -78.7630 63° Northeast 216 249 14,400 540 Descending FlightAware
10:26AM 45.0140 -78.7180 65° Northeast 191 220 15,600 480 Climbing FlightAware
10:26AM 45.0270 -78.6790 65° Northeast 191 220 15,000 -780 Descending FlightAware
10:27AM 45.0380 -78.6440 66° East 148 170 14,700 -300 Descending FlightAware
10:28AM 45.0520 -78.6010 65° Northeast 218 251 14,700 1,080 Level FlightAware
10:28AM 45.0680 -78.5530 65° Northeast 238 274 16,000 1,020 Climbing FlightAware
10:29AM 45.0840 -78.5080 63° Northeast 219 252 16,000  Level FlightAware
10:29AM 45.1060 -78.4710 50° Northeast 233 268 16,000  Level FlightAware
10:30AM 45.1180 -78.4680 10° North 250 288 16,000  Level FlightAware
10:30AM 45.1430 -78.4720 354° North 277 319 16,000  Level FlightAware
10:31AM 45.1930 -78.4830 351° North 280 322 16,000  Level FlightAware
10:31AM 45.2370 -78.4920 352° North 282 325 16,000  Level FlightAware
10:32AM 45.2710 -78.5000 351° North 282 325 16,000  Level FlightAware
10:32AM 45.3200 -78.5110 351° North 284 327 16,000  Level FlightAware
10:33AM 45.3620 -78.5200 351° North 282 325 16,000  Level FlightAware
10:33AM 45.4130 -78.5310 351° North 283 326 16,000  Level FlightAware
10:34AM 45.4520 -78.5400 351° North 286 329 16,000  Level FlightAware
10:34AM 45.4800 -78.5440 354° North 292 336 16,000  Level FlightAware
10:35AM 45.5110 -78.5390 North 294 338 16,000  Level FlightAware
10:35AM 45.5580 -78.5300 North 291 335 16,000  Level FlightAware
10:36AM 45.6030 -78.5220 North 290 334 16,000  Level FlightAware
10:37AM 45.6670 -78.5090 North 292 336 16,000  Level FlightAware
10:37AM 45.7150 -78.5000 North 291 335 16,000  Level FlightAware
10:38AM 45.7630 -78.4900 North 295 339 16,000  Level FlightAware
10:38AM 45.8060 -78.4820 North 294 338 16,000  Level FlightAware
10:39AM 45.8610 -78.4710 North 300 345 16,000  Level FlightAware
10:39AM 45.9050 -78.4630 North 296 341 16,000  Level FlightAware
10:40AM 45.9340 -78.4580 North 287 330 16,000  Level FlightAware
10:41AM 45.9900 -78.4480 North 271 312 16,000  Level FlightAware
10:41AM 46.0370 -78.4390 North 328 377 16,000  Level FlightAware
10:42AM 46.0900 -78.4310 North 384 442 16,000 780 Level FlightAware
10:42AM 46.1580 -78.4200 North 412 474 16,900 1,800 Climbing FlightAware
10:43AM 46.2200 -78.4100 North 424 488 18,100 2,040 Climbing FlightAware
10:43AM 46.2650 -78.4030 North 423 487 19,200 1,500 Climbing FlightAware
10:44AM 46.3480 -78.3890 North 423 487 20,200 2,280 Climbing FlightAware
10:45AM 46.4030 -78.3790 North 441 507 22,000 3,060 Climbing FlightAware
10:45AM 46.4750 -78.3440 19° North 466 536 23,300 2,100 Climbing FlightAware
10:45AM 46.4920 -78.3170 48° Northeast 473 544 23,700 2,580 Climbing FlightAware
10:46AM 46.5080 -78.1710 81° East 464 534 25,900 3,360 Climbing FlightAware
10:46AM 46.4920 -78.1300 120° Southeast 458 527 26,600 3,600 Climbing FlightAware
10:46AM 46.4660 -78.0970 139° Southeast 455 524 27,100 1,980 Climbing FlightAware
10:47AM 46.4270 -78.0770 161° South 451 519 27,800 1,740 Climbing FlightAware
10:47AM 46.3730 -78.0880 188° South 449 517 28,500 1,920 Climbing FlightAware
10:48AM 46.3010 -78.1320 203° Southwest 449 517 29,900 2,040 Climbing FlightAware
10:48AM 46.2400 -78.1680 202° Southwest 453 521 30,900 840 Climbing FlightAware
10:49AM 46.1530 -78.2170 201° Southwest 447 514 31,000 60 Climbing FlightAware
10:50AM 46.0880 -78.2550 202° Southwest 448 516 31,000  Level FlightAware
10:50AM 46.0380 -78.2830 201° Southwest 449 517 31,000  Level FlightAware
10:51AM 45.9700 -78.3200 201° Southwest 464 534 31,000  Level FlightAware
10:52AM 45.8940 -78.3660 203° Southwest 468 539 31,000  Level FlightAware
10:52AM 45.8700 -78.3920 217° Southwest 461 531 31,000  Level FlightAware
10:52AM 45.8250 -78.4710 231° Southwest 463 533 31,000  Level FlightAware
10:53AM 45.7720 -78.5670 232° Southwest 462 532 31,000  Level FlightAware
10:53AM 45.7190 -78.6300 220° Southwest 471 542 31,000  Level FlightAware
10:54AM 45.6510 -78.6890 211° Southwest 471 542 31,000  Level FlightAware
10:55AM 45.5890 -78.7420 211° Southwest 469 540 31,000  Level FlightAware
10:55AM 45.5210 -78.8010 211° Southwest 470 541 31,000  Level FlightAware
10:56AM 45.4690 -78.8460 211° Southwest 472 543 31,000  Level FlightAware
10:56AM 45.3950 -78.9080 210° Southwest 448 516 31,000  Level FlightAware
10:57AM 45.3340 -78.9570 209° Southwest 414 476 31,000  Level FlightAware
10:57AM 45.2740 -79.0070 210° Southwest 405 466 31,000  Level FlightAware
10:58AM 45.2230 -79.0490 210° Southwest 398 458 31,000  Level FlightAware
10:59AM 45.1700 -79.0910 209° Southwest 394 453 31,000  Level FlightAware
10:59AM 45.1150 -79.1310 207° Southwest 389 448 31,000  Level FlightAware
11:00AM 45.0460 -79.1670 200° South 397 457 31,000  Level FlightAware
11:00AM 44.9850 -79.1760 186° South 398 458 31,000  Level FlightAware
11:01AM 44.9500 -79.1680 171° South 419 482 31,000  Level FlightAware
11:01AM 44.9210 -79.1410 147° Southeast 443 510 31,000  Level FlightAware
11:01AM 44.9010 -79.1030 127° Southeast 460 529 31,000  Level FlightAware
11:02AM 44.8930 -79.0690 108° East 468 539 31,000  Level FlightAware
11:02AM 44.9110 -78.9510 78° East 464 534 31,000  Level FlightAware
11:03AM 44.9580 -78.8780 48° Northeast 459 528 31,000  Level FlightAware
11:04AM 45.0130 -78.7990 45° Northeast 458 527 31,000  Level FlightAware
11:04AM 45.0940 -78.7120 37° Northeast 457 526 31,000  Level FlightAware
11:05AM 45.1550 -78.6540 34° Northeast 441 507 31,000  Level FlightAware
11:05AM 45.2250 -78.6030 27° Northeast 440 506 31,000  Level FlightAware
11:06AM 45.2890 -78.5560 27° Northeast 439 505 31,000  Level FlightAware
11:07AM 45.3470 -78.5130 28° Northeast 437 503 31,000  Level FlightAware
11:07AM 45.3770 -78.4980 19° North 423 487 31,000  Level FlightAware
11:07AM 45.4230 -78.4850 11° North 427 491 31,000  Level FlightAware
11:08AM 45.4970 -78.4470 20° North 429 494 31,000  Level FlightAware
11:09AM 45.5900 -78.3980 20° North 428 493 31,000  Level FlightAware
11:09AM 45.6500 -78.3670 20° North 427 491 31,000 -360 Level FlightAware
11:10AM 45.7210 -78.3310 19° North 431 496 30,600 -720 Descending FlightAware
11:10AM 45.7820 -78.3020 18° North 436 502 30,200 -840 Descending FlightAware
11:11AM 45.8530 -78.2690 18° North 443 510 29,700 -600 Descending FlightAware
11:12AM 45.9250 -78.2370 17° North 444 511 29,500 -180 Descending FlightAware
11:12AM 45.9910 -78.2060 18° North 441 507 29,500 60 Level FlightAware
11:13AM 46.0580 -78.1750 18° North 438 504 29,600 120 Climbing FlightAware
11:13AM 46.1330 -78.1400 18° North 434 499 29,700 120 Climbing FlightAware
11:14AM 46.1930 -78.1120 18° North 431 496 29,800 120 Climbing FlightAware
11:14AM 46.2630 -78.0800 18° North 430 495 29,900 60 Climbing FlightAware
11:15AM 46.3310 -78.0490 17° North 430 495 29,900  Level FlightAware
11:16AM 46.3940 -78.0210 17° North 431 496 29,900  Level FlightAware
11:16AM 46.4370 -78.0130 North 415 478 29,900  Level FlightAware
11:17AM 46.4920 -78.0330 346° North 409 471 29,900  Level FlightAware
11:17AM 46.4950 -78.0700 277° West 376 433 29,900  Level FlightAware
11:17AM 46.5020 -78.1040 287° West 365 420 29,900  Level FlightAware
11:17AM 46.4950 -78.1540 259° West 356 410 29,900  Level FlightAware
11:17AM 46.4830 -78.1780 234° Southwest 355 409 29,900  Level FlightAware
11:18AM 46.4380 -78.2300 219° Southwest 355 409 29,900  Level FlightAware
11:19AM 46.3860 -78.2840 216° Southwest 352 405 29,900  Level FlightAware
11:19AM 46.3500 -78.3230 217° Southwest 352 405 29,900 60 Level FlightAware
11:20AM 46.2980 -78.3770 216° Southwest 353 406 30,000 120 Climbing FlightAware
11:20AM 46.2530 -78.4230 215° Southwest 353 406 30,100 120 Climbing FlightAware
11:21AM 46.2020 -78.4750 215° Southwest 353 406 30,200 120 Climbing FlightAware
11:22AM 46.1580 -78.5200 215° Southwest 352 405 30,300 120 Climbing FlightAware
11:22AM 46.1120 -78.5670 215° Southwest 351 404 30,400 120 Climbing FlightAware
11:23AM 46.0690 -78.6110 215° Southwest 350 403 30,500 240 Climbing FlightAware
11:23AM 46.0170 -78.6630 215° Southwest 352 405 30,700 240 Climbing FlightAware
11:24AM 45.9690 -78.6920 203° Southwest 357 411 30,800 60 Climbing FlightAware
11:24AM 45.9320 -78.7070 196° South 365 420 30,800 180 Level FlightAware
11:25AM 45.8710 -78.7110 183° South 355 409 31,000 120 Climbing FlightAware
11:25AM 45.8200 -78.7270 192° South 361 415 31,000  Level FlightAware
11:26AM 45.7600 -78.7410 189° South 361 415 31,000  Level FlightAware
11:27AM 45.7000 -78.7530 188° South 364 419 31,000  Level FlightAware
11:27AM 45.6410 -78.7760 195° South 357 411 31,000  Level FlightAware
11:28AM 45.5940 -78.8030 202° Southwest 357 411 31,000  Level FlightAware
11:28AM 45.5350 -78.8270 196° South 358 412 31,000  Level FlightAware
11:29AM 45.4800 -78.8520 198° South 361 415 31,000  Level FlightAware
11:30AM 45.4210 -78.8760 196° South 362 417 31,000  Level FlightAware
11:30AM 45.3550 -78.9040 197° South 363 418 31,000  Level FlightAware
11:31AM 45.3060 -78.9240 196° South 364 419 31,000  Level FlightAware
11:31AM 45.2440 -78.9490 196° South 366 421 31,000  Level FlightAware
11:32AM 45.1720 -78.9790 196° South 366 421 31,000  Level FlightAware
11:33AM 45.1210 -79.0010 197° South 366 421 31,000  Level FlightAware
11:33AM 45.0940 -79.0110 195° South 375 432 31,000  Level FlightAware
11:33AM 45.0530 -79.0010 170° South 404 465 31,000  Level FlightAware
11:33AM 45.0380 -78.9880 149° Southeast 417 480 31,000  Level FlightAware
11:34AM 45.0220 -78.9660 136° Southeast 429 494 31,000  Level FlightAware
11:34AM 45.0110 -78.9380 119° Southeast 438 504 31,000  Level FlightAware
11:34AM 45.0030 -78.8970 105° East 446 513 31,000  Level FlightAware
11:35AM 45.0120 -78.8240 80° East 449 517 31,000  Level FlightAware
11:35AM 45.0430 -78.7670 52° Northeast 443 510 31,000  Level FlightAware
11:36AM 45.0950 -78.6960 44° Northeast 444 511 31,000  Level FlightAware
11:36AM 45.1430 -78.6460 36° Northeast 433 498 31,000  Level FlightAware
11:37AM 45.2020 -78.6070 25° Northeast 431 496 31,000  Level FlightAware
11:37AM 45.2690 -78.5640 24° Northeast 430 495 31,000 -360 Level FlightAware
11:38AM 45.3310 -78.5250 24° Northeast 436 502 30,600 -720 Descending FlightAware
11:38AM 45.4000 -78.4830 23° Northeast 439 505 30,200 -720 Descending FlightAware
11:39AM 45.4580 -78.4480 23° Northeast 443 510 29,800 -600 Descending FlightAware
11:40AM 45.5390 -78.4020 22° Northeast 445 512 29,500 -300 Descending FlightAware
11:40AM 45.6050 -78.3650 21° North 442 509 29,500 60 Level FlightAware
11:41AM 45.6700 -78.3280 22° Northeast 438 504 29,600 240 Climbing FlightAware
11:41AM 45.7330 -78.2920 22° Northeast 433 498 29,800 240 Climbing FlightAware
11:42AM 45.8100 -78.2490 21° North 432 497 29,900 60 Climbing FlightAware
11:42AM 45.8690 -78.2160 21° North 432 497 29,900  Level FlightAware
11:43AM 45.9390 -78.1770 21° North 432 497 29,900  Level FlightAware
11:44AM 45.9960 -78.1450 21° North 433 498 29,900  Level FlightAware
11:44AM 46.0630 -78.1070 21° North 432 497 29,900  Level FlightAware
11:45AM 46.1290 -78.0700 21° North 432 497 29,900  Level FlightAware
11:45AM 46.1970 -78.0320 21° North 427 491 29,900  Level FlightAware
11:46AM 46.2580 -78.0070 16° North 409 471 29,900  Level FlightAware
11:47AM 46.3270 -78.0050 North 403 464 29,900  Level FlightAware
11:47AM 46.3920 -78.0040 North 400 460 29,900  Level FlightAware
11:48AM 46.4400 -78.0050 359° North 394 453 29,900  Level FlightAware
11:48AM 46.4780 -78.0290 336° Northwest 371 427 29,900  Level FlightAware
11:48AM 46.4960 -78.0700 303° West 351 404 29,900  Level FlightAware
11:49AM 46.4990 -78.0970 279° West 343 395 29,900  Level FlightAware
11:49AM 46.4850 -78.1510 249° West 336 387 29,900  Level FlightAware
11:49AM 46.4700 -78.1700 221° Southwest 338 389 29,900  Level FlightAware
11:50AM 46.4200 -78.2180 214° Southwest 344 396 29,900  Level FlightAware
11:50AM 46.3740 -78.2600 212° Southwest 347 399 29,900  Level FlightAware
11:51AM 46.3250 -78.3070 214° Southwest 349 402 29,900  Level FlightAware
11:52AM 46.2800 -78.3500 213° Southwest 353 406 29,900  Level FlightAware
11:52AM 46.2290 -78.3980 213° Southwest 353 406 29,900  Level FlightAware
11:53AM 46.1780 -78.4460 213° Southwest 353 406 29,900  Level FlightAware
11:53AM 46.1360 -78.4860 213° Southwest 351 404 29,900  Level FlightAware
11:54AM 46.0830 -78.5360 213° Southwest 348 400 29,900  Level FlightAware
11:54AM 46.0410 -78.5760 213° Southwest 346 398 29,900  Level FlightAware
11:55AM 45.9920 -78.6210 213° Southwest 347 399 29,900  Level FlightAware
11:56AM 45.9490 -78.6620 214° Southwest 349 402 29,900 60 Level FlightAware
11:56AM 45.8980 -78.7100 213° Southwest 351 404 30,000 60 Climbing FlightAware
11:57AM 45.8620 -78.7420 212° Southwest 356 410 30,000  Level FlightAware
11:57AM 45.8360 -78.7530 196° South 364 419 30,000  Level FlightAware
11:58AM 45.7800 -78.7700 192° South 367 422 30,000  Level FlightAware
11:58AM 45.7190 -78.7870 191° South 369 425 30,000  Level FlightAware
11:59AM 45.6600 -78.8010 189° South 358 412 30,000 60 Level FlightAware
11:59AM 45.6020 -78.8150 190° South 347 399 30,100 60 Climbing FlightAware
12:00PM 45.5520 -78.8270 190° South 339 390 30,100  Level FlightAware
12:00PM 45.4930 -78.8420 190° South 355 409 30,100 300 Level FlightAware
12:01PM 45.4420 -78.8550 190° South 388 447 30,500 600 Climbing FlightAware
12:02PM 45.3720 -78.8730 190° South 426 490 30,800 600 Climbing FlightAware
12:02PM 45.3000 -78.8900 189° South 460 529 31,300 1,320 Climbing FlightAware
12:03PM 45.2420 -78.8680 165° South 494 568 32,200 1,860 Climbing FlightAware
12:03PM 45.2120 -78.8330 141° Southeast 518 596 32,700 1,920 Climbing FlightAware
12:03PM 45.1860 -78.7730 122° Southeast 533 613 33,400 2,400 Climbing FlightAware
12:03PM 45.1790 -78.7320 104° East 536 617 34,000 2,580 Climbing FlightAware
12:04PM 45.1920 -78.6160 81° East 535 616 35,400 2,100 Climbing FlightAware
12:04PM 45.2210 -78.5520 57° Northeast 525 604 36,000 600 Climbing FlightAware
12:05PM 45.2910 -78.4880 33° Northeast 502 578 36,000  Level FlightAware
12:06PM 45.3630 -78.4400 25° Northeast 503 579 36,000  Level FlightAware
12:06PM 45.4400 -78.3920 24° Northeast 506 582 36,000  Level FlightAware
12:07PM 45.5120 -78.3470 24° Northeast 511 588 36,000  Level FlightAware
12:07PM 45.5880 -78.3000 23° Northeast 513 590 36,000  Level FlightAware
12:08PM 45.6670 -78.2510 23° Northeast 514 592 36,000  Level FlightAware
12:08PM 45.7360 -78.2080 24° Northeast 516 594 36,000  Level FlightAware
12:09PM 45.8200 -78.1560 23° Northeast 516 594 36,000  Level FlightAware
12:10PM 45.8980 -78.1060 24° Northeast 514 592 36,000  Level FlightAware
12:10PM 45.9710 -78.0610 23° Northeast 515 593 36,000  Level FlightAware
12:11PM 46.0460 -78.0150 23° Northeast 515 593 36,000  Level FlightAware
12:11PM 46.1210 -77.9680 23° Northeast 514 592 36,000  Level FlightAware
12:12PM 46.1980 -77.9210 23° Northeast 513 590 36,000  Level FlightAware
12:12PM 46.2620 -77.9120 North 508 585 36,000  Level FlightAware
12:13PM 46.3460 -77.9360 349° North 504 580 36,000  Level FlightAware
12:13PM 46.3890 -77.9590 340° North 495 570 36,000 720 Level FlightAware
12:14PM 46.4510 -78.0350 320° Northwest 479 551 36,700 2,100 Climbing FlightAware
12:14PM 46.4930 -78.0980 314° West 446 513 38,300 3,900 Climbing FlightAware
12:15PM 46.5040 -78.1350 293° West 420 483 39,500 4,800 Climbing FlightAware
12:15PM 46.5060 -78.1650 276° West 410 472 40,300 2,460 Climbing FlightAware
12:15PM 46.4990 -78.2120 258° West 409 471 40,800 1,140 Climbing FlightAware
12:15PM 46.4850 -78.2450 238° Southwest 417 480 41,000 360 Climbing FlightAware
12:16PM 46.4600 -78.2730 218° Southwest 434 499 41,000  Level FlightAware
12:16PM 46.4050 -78.2970 197° South 456 525 41,000  Level FlightAware
12:17PM 46.3070 -78.3250 191° South 458 527 41,000  Level FlightAware
12:17PM 46.2410 -78.3430 191° South 454 522 41,000  Level FlightAware
12:18PM 46.1670 -78.3640 191° South 455 524 41,000  Level FlightAware
12:19PM 46.0770 -78.3880 190° South 450 518 41,000  Level FlightAware
12:19PM 46.0070 -78.4080 191° South 451 519 41,000  Level FlightAware
12:20PM 45.9370 -78.4280 191° South 453 521 41,000  Level FlightAware
12:21PM 45.8600 -78.4510 192° South 454 522 41,000  Level FlightAware
12:21PM 45.8350 -78.4600 194° South 445 512 41,000  Level FlightAware
12:21PM 45.8080 -78.4830 211° Southwest 420 483 41,000  Level FlightAware
12:21PM 45.7930 -78.5070 228° Southwest 404 465 41,000  Level FlightAware
12:21PM 45.7830 -78.5450 249° West 390 449 41,000  Level FlightAware
12:22PM 45.7850 -78.5960 273° West 383 441 41,000  Level FlightAware
12:22PM 45.8010 -78.6440 296° West 382 440 41,000  Level FlightAware
12:23PM 45.8010 -78.7200 270° West 397 457 41,000  Level FlightAware
12:23PM 45.7850 -78.7550 237° Southwest 410 472 41,000  Level FlightAware
12:24PM 45.7460 -78.7890 211° Southwest 449 517 41,000  Level FlightAware
12:24PM 45.6790 -78.8090 192° South 473 544 41,000  Level FlightAware
12:25PM 45.6040 -78.8290 191° South 480 552 41,000  Level FlightAware
12:26PM 45.4830 -78.8600 190° South 474 545 41,000  Level FlightAware
12:26PM 45.3850 -78.8860 191° South 477 549 41,000  Level FlightAware
12:27PM 45.3130 -78.9060 191° South 479 551 41,000  Level FlightAware
12:27PM 45.2320 -78.9290 191° South 480 552 41,000  Level FlightAware
12:28PM 45.1540 -78.9500 191° South 481 554 41,000  Level FlightAware
12:28PM 45.0890 -78.9710 193° South 484 557 41,000  Level FlightAware
12:29PM 45.0060 -79.0000 194° South 504 580 41,000 60 Level FlightAware
12:29PM 44.9570 -78.9960 177° South 533 613 41,100 660 Climbing FlightAware
12:30PM 44.9200 -78.9730 156° South 551 634 41,400 1,020 Climbing FlightAware
12:30PM 44.8950 -78.9470 144° Southeast 564 649 41,600 780 Climbing FlightAware
12:30PM 44.8680 -78.9020 130° Southeast 576 663 41,800 660 Climbing FlightAware
12:30PM 44.8470 -78.8340 114° Southeast 580 667 42,000 600 Climbing FlightAware
12:31PM 44.8530 -78.6980 86° East 555 639 42,400 720 Climbing FlightAware
12:31PM 44.8670 -78.6590 63° Northeast 540 621 42,600 720 Climbing FlightAware
12:32PM 44.9340 -78.5860 38° Northeast 494 568 43,000 840 Climbing FlightAware
12:32PM 45.0010 -78.5560 18° North 487 560 43,600 1,020 Climbing FlightAware
12:33PM 45.0990 -78.5150 16° North 484 557 44,300 960 Climbing FlightAware
12:34PM 45.1710 -78.4860 16° North 486 559 44,900 900 Climbing FlightAware
12:34PM 45.2540 -78.4510 17° North 488 562 45,400 840 Climbing FlightAware
12:35PM 45.3240 -78.4210 17° North 488 562 45,900 780 Climbing FlightAware
12:35PM 45.3970 -78.3890 17° North 487 560 46,300 600 Climbing FlightAware
12:36PM 45.4880 -78.3500 17° North 486 559 46,700 480 Climbing FlightAware
12:37PM 45.5650 -78.3170 17° North 487 560 47,000 240 Climbing FlightAware
12:37PM 45.6390 -78.2860 16° North 491 565 47,000  Level FlightAware
12:38PM 45.7170 -78.2530 16° North 492 566 47,000  Level FlightAware
12:38PM 45.7950 -78.2210 16° North 494 568 47,000  Level FlightAware
12:39PM 45.8700 -78.1900 16° North 496 571 47,000  Level FlightAware
12:40PM 45.9470 -78.1580 16° North 498 573 47,000  Level FlightAware
12:40PM 46.0290 -78.1250 16° North 495 570 47,000  Level FlightAware
12:41PM 46.1030 -78.0950 16° North 487 560 47,000  Level FlightAware
12:41PM 46.1770 -78.0670 15° North 484 557 47,000  Level FlightAware
12:42PM 46.2460 -78.0420 14° North 483 556 47,000  Level FlightAware
12:43PM 46.3290 -78.0470 358° North 434 499 47,000  Level FlightAware
12:43PM 46.3490 -78.0660 327° Northwest 425 489 47,000  Level FlightAware
12:43PM 46.3690 -78.1020 309° West 422 486 47,000  Level FlightAware
12:43PM 46.3770 -78.1340 290° West 422 486 47,000  Level FlightAware
12:44PM 46.3920 -78.2330 282° West 424 488 47,000  Level FlightAware
12:44PM 46.4060 -78.3330 282° West 427 491 47,000  Level FlightAware
12:45PM 46.4230 -78.4450 282° West 427 491 47,000  Level FlightAware
12:46PM 46.4390 -78.5490 283° West 427 491 47,000  Level FlightAware
12:46PM 46.4260 -78.6250 256° West 439 505 47,000  Level FlightAware
12:46PM 46.4120 -78.6520 233° Southwest 447 514 47,000  Level FlightAware
12:47PM 46.3830 -78.6810 215° Southwest 459 528 47,000  Level FlightAware
12:47PM 46.3590 -78.6920 198° South 465 535 47,000  Level FlightAware
12:47PM 46.2910 -78.7090 190° South 467 537 47,000  Level FlightAware
12:48PM 46.2180 -78.7250 189° South 469 540 47,000  Level FlightAware
12:49PM 46.1350 -78.7440 189° South 472 543 47,000  Level FlightAware
12:49PM 46.0610 -78.7620 190° South 474 545 47,000  Level FlightAware
12:50PM 45.9900 -78.7790 189° South 477 549 47,000  Level FlightAware
12:50PM 45.9070 -78.7980 189° South 474 545 47,000  Level FlightAware
12:51PM 45.8320 -78.8150 189° South 472 543 47,000  Level FlightAware
12:51PM 45.7650 -78.8300 189° South 475 547 47,000  Level FlightAware
12:52PM 45.6910 -78.8470 189° South 476 548 47,000  Level FlightAware
12:53PM 45.6260 -78.8620 189° South 478 550 47,000  Level FlightAware
12:53PM 45.5430 -78.8820 190° South 479 551 47,000  Level FlightAware
12:54PM 45.4730 -78.8990 190° South 481 554 47,000 -120 Level FlightAware
12:54PM 45.3920 -78.9190 190° South 481 554 46,900 -1,260 Descending FlightAware
12:55PM 45.3100 -78.9400 190° South 502 578 45,500 -1,500 Descending FlightAware
12:56PM 45.2300 -78.9590 189° South 477 549 45,100 -3,060 Descending FlightAware
12:56PM 45.1590 -78.9730 188° South 475 547 42,000 -5,340 Descending FlightAware
12:57PM 45.0820 -78.9860 187° South 463 533 39,200 -4,740 Descending FlightAware
12:57PM 45.0500 -79.0010 198° South 438 504 37,900 -3,960 Descending FlightAware
12:57PM 45.0310 -79.0210 217° Southwest 415 478 37,300 -1,080 Descending FlightAware
12:58PM 44.9840 -79.0940 228° Southwest 400 460 37,000 -360 Descending FlightAware
12:58PM 44.9630 -79.1350 234° Southwest 408 470 37,000  Level FlightAware
12:58PM 44.9560 -79.1830 258° West 414 476 37,000  Level FlightAware
12:59PM 44.9690 -79.2440 287° West 417 480 37,000  Level FlightAware
12:59PM 44.9870 -79.2730 311° West 425 489 37,000 -660 Level FlightAware
12:59PM 45.0110 -79.2940 328° Northwest 439 505 36,700 -2,640 Descending FlightAware
01:00PM 45.0470 -79.3050 348° North 463 533 35,600 -4,800 Descending FlightAware
01:00PM 45.1000 -79.2910 11° North 507 583 33,300 -4,740 Descending FlightAware
01:01PM 45.1650 -79.2320 33° Northeast 526 605 31,300 -1,980 Descending FlightAware
01:01PM 45.2470 -79.1540 34° Northeast 559 643 31,000 -300 Descending FlightAware
01:02PM 45.3190 -79.0890 32° Northeast 562 647 31,000  Level FlightAware
01:02PM 45.4010 -79.0150 32° Northeast 565 650 31,000  Level FlightAware
01:03PM 45.4710 -78.9520 32° Northeast 540 621 31,000  Level FlightAware
01:03PM 45.5100 -78.9250 26° Northeast 499 574 31,000 -180 Level FlightAware
01:04PM 45.5490 -78.9150 10° North 468 539 30,900 -2,280 Descending FlightAware
01:04PM 45.6050 -78.9350 346° North 447 514 29,100 -4,740 Descending FlightAware
01:04PM 45.6280 -78.9600 323° Northwest 446 513 27,600 -5,760 Descending FlightAware
01:05PM 45.6400 -78.9840 306° West 444 511 26,700 -4,800 Descending FlightAware
01:05PM 45.6500 -79.0220 291° West 434 499 25,600 -4,200 Descending FlightAware
01:05PM 45.6510 -79.0450 274° West 428 493 25,100 -2,340 Descending FlightAware
01:05PM 45.6270 -79.1280 248° West 403 464 24,000 -1,320 Descending FlightAware
01:06PM 45.5980 -79.1510 209° Southwest 378 435 24,000  Level FlightAware
01:06PM 45.5360 -79.1650 189° South 347 399 24,000  Level FlightAware
01:07PM 45.4640 -79.1780 187° South 349 402 24,000  Level FlightAware
01:08PM 45.4060 -79.1880 187° South 345 397 24,000  Level FlightAware
01:08PM 45.3530 -79.1940 185° South 345 397 24,000  Level FlightAware
01:09PM 45.2920 -79.1870 175° South 351 404 24,000  Level FlightAware
01:09PM 45.2320 -79.1800 175° South 398 458 24,000 -120 Level FlightAware
01:10PM 45.1690 -79.1710 174° South 387 445 23,900 -1,680 Descending FlightAware
01:11PM 45.1080 -79.1630 175° South 386 444 22,100 -3,360 Descending FlightAware
01:11PM 45.0440 -79.1550 175° South 394 453 20,000 -2,940 Descending FlightAware
01:12PM 44.9820 -79.1470 175° South 381 438 18,700 -2,100 Descending FlightAware
01:12PM 44.9210 -79.1390 175° South 362 417 17,600 -1,860 Descending FlightAware
01:13PM 44.8630 -79.1320 175° South 345 397 16,500 -1,800 Descending FlightAware
01:14PM 44.8020 -79.1240 175° South 330 380 15,400 -1,800 Descending FlightAware
01:14PM 44.7490 -79.1180 175° South 318 366 14,400 -1,680 Descending FlightAware
01:15PM 44.6920 -79.1100 174° South 306 352 13,300 -1,680 Descending FlightAware
01:15PM 44.6490 -79.1050 175° South 298 343 12,500 -1,560 Descending FlightAware
01:16PM 44.6060 -79.0990 174° South 292 336 11,700 -1,560 Descending FlightAware
01:17PM 44.5500 -79.0920 175° South 288 331 10,600 -1,560 Descending FlightAware
01:17PM 44.5100 -79.0870 175° South 285 328 9,900 -1,440 Descending FlightAware
01:18PM 44.4420 -79.0790 175° South 276 318 8,600 -1,500 Descending FlightAware
01:18PM 44.4190 -79.0760 175° South 277 319 8,200 -1,560 Descending FlightAware
01:19PM 44.3940 -79.0730 175° South 274 315 7,700 -1,380 Descending FlightAware
01:19PM 44.3710 -79.0700 175° South 268 308 7,300 -1,440 Descending FlightAware
01:19PM 44.3320 -79.0650 175° South 259 298 6,500 -1,500 Descending FlightAware
01:20PM 44.3150 -79.0630 175° South 256 295 6,200 -1,200 Descending FlightAware
01:20PM 44.2940 -79.0600 174° South 245 282 5,800 -1,200 Descending FlightAware
01:20PM 44.2720 -79.0570 174° South 222 255 5,400 -1,020 Descending FlightAware
01:20PM 44.2610 -79.0580 184° South 207 238 5,300 -600 Descending FlightAware
01:21PM 44.2530 -79.0630 204° Southwest 197 227 5,200 -720 Descending FlightAware
01:21PM 44.2460 -79.0690 212° Southwest 193 222 5,100 -840 Descending FlightAware
01:21PM 44.2430 -79.0730 224° Southwest 188 216 5,000 -420 Descending FlightAware
01:21PM 44.2390 -79.0810 235° Southwest 183 211 5,000 -1,020 Level FlightAware
01:21PM 44.2300 -79.1030 240° Southwest 167 192 4,500 -1,380 Descending FlightAware
01:22PM 44.2230 -79.1210 242° Southwest 162 186 4,100 -840 Descending FlightAware
01:22PM 44.2190 -79.1300 238° Southwest 162 186 4,100 -180 Level FlightAware
01:22PM 44.2110 -79.1520 243° Southwest 161 185 4,000 -180 Descending FlightAware
01:23PM 44.2030 -79.1710 240° Southwest 162 186 4,000  Level FlightAware
01:23PM 44.1940 -79.1950 242° Southwest 161 185 4,000  Level FlightAware
01:23PM 44.1860 -79.2130 238° Southwest 161 185 4,000  Level FlightAware
01:24PM 44.1800 -79.2290 242° Southwest 165 190 4,000  Level FlightAware
01:24PM 44.1720 -79.2490 241° Southwest 165 190 4,000 -180 Level FlightAware
01:24PM 44.1640 -79.2690 241° Southwest 168 193 3,900 -480 Descending FlightAware
01:25PM 44.1570 -79.2860 240° Southwest 164 189 3,700 -780 Descending FlightAware
01:25PM 44.1500 -79.3030 240° Southwest 157 181 3,400 -780 Descending FlightAware
01:25PM 44.1420 -79.3220 240° Southwest 137 158 3,100 -420 Descending FlightAware
01:26PM 44.1360 -79.3380 242° Southwest 129 148 3,100 -180 Level FlightAware
01:26PM 44.1290 -79.3560 242° Southwest 125 144 3,000  Descending FlightAware
01:27PM 44.1220 -79.3720 239° Southwest 141 162 3,100  Climbing FlightAware
01:27PM 44.1160 -79.3870 241° Southwest 141 162 3,000 -180 Descending FlightAware
01:27PM 44.1090 -79.4040 240° Southwest 143 165 3,000  Level FlightAware
01:27PM 44.1040 -79.4170 242° Southwest 144 166 3,000  Level FlightAware
01:28PM 44.0950 -79.4400 241° Southwest 141 162 3,000 -120 Level FlightAware
01:29PM 44.0820 -79.4600 228° Southwest 134 154 2,900 -420 Descending FlightAware
01:29PM 44.0740 -79.4660 208° Southwest 136 157 2,700 -1,140 Descending FlightAware
01:29PM 44.0630 -79.4750 210° Southwest 141 162 2,300 -900 Descending FlightAware
01:29PM 44.0510 -79.4840 208° Southwest 143 165 2,100 -480 Descending FlightAware
01:30PM 44.0390 -79.4930 208° Southwest 144 166 2,000 -180 Descending FlightAware
01:30PM 44.0280 -79.5010 208° Southwest 147 169 2,000  Level FlightAware
01:30PM 44.0180 -79.5090 210° Southwest 149 171 2,000  Level FlightAware
01:31PM 44.0070 -79.5170 208° Southwest 148 170 2,000  Level FlightAware
01:31PM 43.9990 -79.5240 212° Southwest 145 167 2,000  Level FlightAware
01:31PM 43.9830 -79.5350 206° Southwest 144 166 2,000  Level FlightAware
01:32PM 43.9710 -79.5440 208° Southwest 145 167 2,000  Level FlightAware
01:32PM 43.9590 -79.5530 208° Southwest 149 171 2,000  Level FlightAware
01:32PM 43.9470 -79.5620 208° Southwest 151 174 2,000  Level FlightAware
01:33PM 43.9340 -79.5720 209° Southwest 152 175 2,000  Level FlightAware
01:33PM 43.9230 -79.5800 208° Southwest 150 173 2,000  Level FlightAware
01:33PM 43.9100 -79.5900 209° Southwest 149 171 2,000  Level FlightAware
01:34PM 43.9010 -79.5960 206° Southwest 149 171 2,000  Level FlightAware
01:34PM 43.8930 -79.5970 185° South 151 174 2,000  Level FlightAware
01:34PM 43.8870 -79.5950 166° South 153 176 2,000  Level FlightAware
01:34PM 43.8800 -79.5900 153° Southeast 154 177 2,000 -420 Level FlightAware
01:34PM 43.8680 -79.5800 149° Southeast 153 176 1,800 -540 Descending FlightAware
01:35PM 43.8590 -79.5720 147° Southeast 156 180 1,700 -180 Descending FlightAware
01:35PM 43.8470 -79.5610 147° Southeast 158 182 1,700  Level FlightAware
01:35PM 43.8350 -79.5490 144° Southeast 150 173 1,700  Level FlightAware
01:36PM 43.8190 -79.5350 148° Southeast 134 154 1,700  Level FlightAware
01:36PM 43.8080 -79.5250 147° Southeast 134 154 1,700  Level FlightAware
01:36PM 43.8000 -79.5180 148° Southeast 133 153 1,700 -180 Level FlightAware
01:37PM 43.7900 -79.5100 150° Southeast 124 143 1,600 -480 Descending FlightAware
01:37PM 43.7810 -79.5010 144° Southeast 123 142 1,400 -540 Descending FlightAware
01:37PM 43.7740 -79.4950 148° Southeast 121 139 1,300 -540 Descending FlightAware
01:38PM 43.7640 -79.4870 150° Southeast 118 136 1,100 -720 Descending FlightAware
01:38PM 43.7540 -79.4770 144° Southeast 119 137 800 -720 Descending FlightAware
01:38PM 43.7440 -79.4660 142° Southeast 111 128 -2,040 Descending FlightAware
01:39PM 43.7510 -79.4550 49° Northeast 111 128  Level FlightAware
01:40PM 43.7430 -79.4660 225° Southwest 111 128  Level FlightAware
01:40PM 43.7410 -79.4510 100° East 111 128  Level FlightAware
01:40PM 43.7400 -79.4680 265° West 111 128  Level FlightAware
01:41PM 43.7440 -79.4520 71° East 111 128  Level FlightAware